sensor_id;sensor_type;location;lat;lon;timestamp;pressure;altitude;pressure_sealevel;temperature;humidity
22047;BME280;11187;49.412;20.956;2023-04-09T00:01:26;95553.06;;;0.48;100.00
22047;BME280;11187;49.412;20.956;2023-04-09T00:04:12;95554.72;;;0.47;100.00
22047;BME280;11187;49.412;20.956;2023-04-09T00:06:46;95553.03;;;0.46;100.00
22047;BME280;11187;49.412;20.956;2023-04-09T00:09:32;95558.09;;;0.48;100.00
22047;BME280;11187;49.412;20.956;2023-04-09T00:12:06;95555.59;;;0.48;100.00
22047;BME280;11187;49.412;20.956;2023-04-09T00:14:52;95556.47;;;0.48;100.00
22047;BME280;11187;49.412;20.956;2023-04-09T00:17:26;95561.50;;;0.50;100.00
22047;BME280;11187;49.412;20.956;2023-04-09T00:20:12;95559.88;;;0.50;100.00
22047;BME280;11187;49.412;20.956;2023-04-09T00:22:46;95552.38;;;0.53;100.00
22047;BME280;11187;49.412;20.956;2023-04-09T00:25:32;95557.44;;;0.53;100.00
22047;BME280;11187;49.412;20.956;2023-04-09T00:28:06;95554.06;;;0.53;100.00
22047;BME280;11187;49.412;20.956;2023-04-09T00:30:52;95558.19;;;0.51;100.00
22047;BME280;11187;49.412;20.956;2023-04-09T00:33:26;95565.00;;;0.53;100.00
22047;BME280;11187;49.412;20.956;2023-04-09T00:36:12;95561.63;;;0.54;100.00
22047;BME280;11187;49.412;20.956;2023-04-09T00:38:46;95565.00;;;0.53;100.00
22047;BME280;11187;49.412;20.956;2023-04-09T00:41:33;95567.44;;;0.50;100.00
22047;BME280;11187;49.412;20.956;2023-04-09T00:44:07;95564.03;;;0.50;100.00
22047;BME280;11187;49.412;20.956;2023-04-09T00:46:53;95563.25;;;0.51;100.00
22047;BME280;11187;49.412;20.956;2023-04-09T00:49:27;95561.56;;;0.51;100.00
22047;BME280;11187;49.412;20.956;2023-04-09T00:52:22;95562.41;;;0.52;100.00
22047;BME280;11187;49.412;20.956;2023-04-09T00:54:58;95562.59;;;0.58;100.00
22047;BME280;11187;49.412;20.956;2023-04-09T00:57:53;95565.13;;;0.58;100.00
22047;BME280;11187;49.412;20.956;2023-04-09T01:00:27;95564.28;;;0.59;100.00
22047;BME280;11187;49.412;20.956;2023-04-09T01:03:20;95559.34;;;0.62;100.00
22047;BME280;11187;49.412;20.956;2023-04-09T01:06:26;95553.53;;;0.65;100.00
22047;BME280;11187;49.412;20.956;2023-04-09T01:10:04;95564.56;;;0.68;100.00
22047;BME280;11187;49.412;20.956;2023-04-09T01:12:59;95561.22;;;0.69;100.00
22047;BME280;11187;49.412;20.956;2023-04-09T01:15:59;95562.84;;;0.67;100.00
22047;BME280;11187;49.412;20.956;2023-04-09T01:19:09;95560.25;;;0.64;100.00
22047;BME280;11187;49.412;20.956;2023-04-09T01:21:49;95561.75;;;0.59;100.00
22047;BME280;11187;49.412;20.956;2023-04-09T01:24:59;95564.34;;;0.60;100.00
22047;BME280;11187;49.412;20.956;2023-04-09T01:27:44;95570.16;;;0.58;100.00
22047;BME280;11187;49.412;20.956;2023-04-09T01:30:41;95564.22;;;0.56;100.00
22047;BME280;11187;49.412;20.956;2023-04-09T01:33:36;95568.47;;;0.57;100.00
22047;BME280;11187;49.412;20.956;2023-04-09T01:36:10;95568.34;;;0.54;100.00
22047;BME280;11187;49.412;20.956;2023-04-09T01:38:57;95568.34;;;0.54;100.00
22047;BME280;11187;49.412;20.956;2023-04-09T01:41:34;95566.59;;;0.51;100.00
22047;BME280;11187;49.412;20.956;2023-04-09T01:44:22;95563.19;;;0.49;100.00
22047;BME280;11187;49.412;20.956;2023-04-09T01:46:57;95559.81;;;0.49;100.00
22047;BME280;11187;49.412;20.956;2023-04-09T01:49:44;95560.63;;;0.48;100.00
22047;BME280;11187;49.412;20.956;2023-04-09T01:52:38;95560.59;;;0.46;100.00
22047;BME280;11187;49.412;20.956;2023-04-09T01:55:32;95560.53;;;0.45;100.00
22047;BME280;11187;49.412;20.956;2023-04-09T01:58:06;95562.28;;;0.47;100.00
22047;BME280;11187;49.412;20.956;2023-04-09T02:00:58;95563.97;;;0.47;100.00
22047;BME280;11187;49.412;20.956;2023-04-09T02:03:38;95569.81;;;0.46;100.00
22047;BME280;11187;49.412;20.956;2023-04-09T02:06:38;95564.69;;;0.43;100.00
22047;BME280;11187;49.412;20.956;2023-04-09T02:09:36;95569.81;;;0.46;100.00
22047;BME280;11187;49.412;20.956;2023-04-09T02:12:35;95566.53;;;0.48;100.00
22047;BME280;11187;49.412;20.956;2023-04-09T02:15:30;95578.31;;;0.49;100.00
22047;BME280;11187;49.412;20.956;2023-04-09T02:18:04;95576.69;;;0.51;100.00
22047;BME280;11187;49.412;20.956;2023-04-09T02:20:51;95576.81;;;0.56;100.00
22047;BME280;11187;49.412;20.956;2023-04-09T02:23:24;95570.97;;;0.57;100.00
22047;BME280;11187;49.412;20.956;2023-04-09T02:26:12;95568.53;;;0.60;100.00
22047;BME280;11187;49.412;20.956;2023-04-09T02:28:46;95568.53;;;0.60;100.00
22047;BME280;11187;49.412;20.956;2023-04-09T02:31:39;95562.72;;;0.62;100.00
22047;BME280;11187;49.412;20.956;2023-04-09T02:34:13;95570.31;;;0.64;100.00
22047;BME280;11187;49.412;20.956;2023-04-09T02:36:59;95563.56;;;0.63;100.00
22047;BME280;11187;49.412;20.956;2023-04-09T02:39:33;95571.16;;;0.65;100.00
22047;BME280;11187;49.412;20.956;2023-04-09T02:42:19;95563.63;;;0.65;100.00
22047;BME280;11187;49.412;20.956;2023-04-09T02:44:54;95561.88;;;0.63;100.00
22047;BME280;11187;49.412;20.956;2023-04-09T02:47:40;95560.25;;;0.66;100.00
22047;BME280;11187;49.412;20.956;2023-04-09T02:50:14;95552.81;;;0.69;100.00
22047;BME280;11187;49.412;20.956;2023-04-09T02:53:00;95547.78;;;0.70;100.00
22047;BME280;11187;49.412;20.956;2023-04-09T02:55:34;95548.69;;;0.72;100.00
22047;BME280;11187;49.412;20.956;2023-04-09T02:58:20;95558.75;;;0.71;100.00
22047;BME280;11187;49.412;20.956;2023-04-09T03:00:54;95556.19;;;0.69;100.00
22047;BME280;11187;49.412;20.956;2023-04-09T03:03:40;95557.00;;;0.68;100.00
22047;BME280;11187;49.412;20.956;2023-04-09T03:06:15;95561.22;;;0.69;100.00
22047;BME280;11187;49.412;20.956;2023-04-09T03:08:54;95556.22;;;0.71;100.00
22047;BME280;11187;49.412;20.956;2023-04-09T03:11:34;95550.31;;;0.70;100.00
22047;BME280;11187;49.412;20.956;2023-04-09T03:14:08;95553.72;;;0.71;100.00
22047;BME280;11187;49.412;20.956;2023-04-09T03:16:54;95555.31;;;0.69;100.00
22047;BME280;11187;49.412;20.956;2023-04-09T03:19:29;95552.81;;;0.69;100.00
22047;BME280;11187;49.412;20.956;2023-04-09T03:22:16;95553.72;;;0.71;100.00
22047;BME280;11187;49.412;20.956;2023-04-09T03:24:50;95558.00;;;0.75;100.00
22047;BME280;11187;49.412;20.956;2023-04-09T03:27:36;95551.31;;;0.77;100.00
22047;BME280;11187;49.412;20.956;2023-04-09T03:30:10;95548.72;;;0.74;100.00
22047;BME280;11187;49.412;20.956;2023-04-09T03:32:57;95547.88;;;0.73;100.00
22047;BME280;11187;49.412;20.956;2023-04-09T03:35:31;95549.59;;;0.74;100.00
22047;BME280;11187;49.412;20.956;2023-04-09T03:38:24;95547.91;;;0.75;100.00
22047;BME280;11187;49.412;20.956;2023-04-09T03:40:58;95553.00;;;0.76;100.00
22047;BME280;11187;49.412;20.956;2023-04-09T03:43:44;95544.59;;;0.76;100.00
22047;BME280;11187;49.412;20.956;2023-04-09T03:46:18;95552.16;;;0.76;100.00
22047;BME280;11187;49.412;20.956;2023-04-09T03:49:04;95554.59;;;0.73;100.00
22047;BME280;11187;49.412;20.956;2023-04-09T03:51:58;95553.72;;;0.72;100.00
22047;BME280;11187;49.412;20.956;2023-04-09T03:54:52;95552.94;;;0.73;100.00
22047;BME280;11187;49.412;20.956;2023-04-09T03:57:26;95564.69;;;0.73;100.00
22047;BME280;11187;49.412;20.956;2023-04-09T04:00:12;95571.34;;;0.71;100.00
22047;BME280;11187;49.412;20.956;2023-04-09T04:02:46;95575.50;;;0.69;100.00
22047;BME280;11187;49.412;20.956;2023-04-09T04:05:39;95573.75;;;0.66;100.00
22047;BME280;11187;49.412;20.956;2023-04-09T04:08:33;95576.97;;;0.62;100.00
22047;BME280;11187;49.412;20.956;2023-04-09T04:11:07;95567.75;;;0.62;100.00
22047;BME280;11187;49.412;20.956;2023-04-09T04:13:54;95567.69;;;0.61;100.00
22047;BME280;11187;49.412;20.956;2023-04-09T04:16:28;95572.72;;;0.59;100.00
22047;BME280;11187;49.412;20.956;2023-04-09T04:19:21;95565.94;;;0.57;100.00
22047;BME280;11187;49.412;20.956;2023-04-09T04:22:15;95570.09;;;0.56;100.00
22047;BME280;11187;49.412;20.956;2023-04-09T04:24:51;95572.63;;;0.56;100.00
22047;BME280;11187;49.412;20.956;2023-04-09T04:27:41;95579.28;;;0.54;100.00
22047;BME280;11187;49.412;20.956;2023-04-09T04:30:15;95578.47;;;0.55;100.00
22047;BME280;11187;49.412;20.956;2023-04-09T04:33:01;95581.06;;;0.58;100.00
22047;BME280;11187;49.412;20.956;2023-04-09T04:35:35;95581.97;;;0.60;100.00
22047;BME280;11187;49.412;20.956;2023-04-09T04:38:21;95585.38;;;0.62;100.00
22047;BME280;11187;49.412;20.956;2023-04-09T04:40:55;95582.94;;;0.66;100.00
22047;BME280;11187;49.412;20.956;2023-04-09T04:43:41;95584.66;;;0.67;100.00
22047;BME280;11187;49.412;20.956;2023-04-09T04:46:15;95587.31;;;0.71;100.00
22047;BME280;11187;49.412;20.956;2023-04-09T04:49:01;95588.16;;;0.72;100.00
22047;BME280;11187;49.412;20.956;2023-04-09T04:51:55;95588.28;;;0.76;100.00
22047;BME280;11187;49.412;20.956;2023-04-09T04:54:49;95592.59;;;0.80;100.00
22047;BME280;11187;49.412;20.956;2023-04-09T04:57:23;95592.66;;;0.82;100.00
22047;BME280;11187;49.412;20.956;2023-04-09T05:00:16;95596.81;;;0.81;100.00
22047;BME280;11187;49.412;20.956;2023-04-09T05:03:12;95596.00;;;0.82;100.00
22047;BME280;11187;49.412;20.956;2023-04-09T05:05:45;95596.91;;;0.85;100.00
22047;BME280;11187;49.412;20.956;2023-04-09T05:08:31;95603.78;;;0.90;100.00
22047;BME280;11187;49.412;20.956;2023-04-09T05:11:05;95607.19;;;0.92;100.00
22047;BME280;11187;49.412;20.956;2023-04-09T05:13:51;95600.53;;;0.94;100.00
22047;BME280;11187;49.412;20.956;2023-04-09T05:16:25;95604.00;;;0.98;100.00
22047;BME280;11187;49.412;20.956;2023-04-09T05:19:18;95609.06;;;0.99;100.00
22047;BME280;11187;49.412;20.956;2023-04-09T05:22:12;95607.47;;;1.03;100.00
22047;BME280;11187;49.412;20.956;2023-04-09T05:24:46;95617.69;;;1.08;100.00
22047;BME280;11187;49.412;20.956;2023-04-09T05:27:39;95616.06;;;1.10;100.00
22047;BME280;11187;49.412;20.956;2023-04-09T05:30:33;95605.25;;;1.15;100.00
22047;BME280;11187;49.412;20.956;2023-04-09T05:33:27;95604.41;;;1.15;100.00
22047;BME280;11187;49.412;20.956;2023-04-09T05:36:23;95612.03;;;1.18;100.00
22047;BME280;11187;49.412;20.956;2023-04-09T05:38:57;95613.66;;;1.16;100.00
22047;BME280;11187;49.412;20.956;2023-04-09T05:41:43;95611.91;;;1.12;100.00
22047;BME280;11187;49.412;20.956;2023-04-09T05:44:17;95611.94;;;1.13;100.00
22047;BME280;11187;49.412;20.956;2023-04-09T05:47:04;95611.25;;;1.19;100.00
22047;BME280;11187;49.412;20.956;2023-04-09T05:49:38;95616.41;;;1.23;100.00
22047;BME280;11187;49.412;20.956;2023-04-09T05:52:31;95611.41;;;1.25;100.00
22047;BME280;11187;49.412;20.956;2023-04-09T05:55:25;95609.00;;;1.30;100.00
22047;BME280;11187;49.412;20.956;2023-04-09T05:57:59;95611.63;;;1.34;100.00
22047;BME280;11187;49.412;20.956;2023-04-09T06:00:52;95609.22;;;1.39;100.00
22047;BME280;11187;49.412;20.956;2023-04-09T06:03:26;95619.50;;;1.46;100.00
22047;BME280;11187;49.412;20.956;2023-04-09T06:06:12;95616.19;;;1.49;100.00
22047;BME280;11187;49.412;20.956;2023-04-09T06:08:46;95617.91;;;1.50;100.00
22047;BME280;11187;49.412;20.956;2023-04-09T06:11:32;95617.94;;;1.52;100.00
22047;BME280;11187;49.412;20.956;2023-04-09T06:14:06;95624.03;;;1.60;100.00
22047;BME280;11187;49.412;20.956;2023-04-09T06:17:01;95631.00;;;1.70;100.00
22047;BME280;11187;49.412;20.956;2023-04-09T06:19:55;95626.06;;;1.75;100.00
22047;BME280;11187;49.412;20.956;2023-04-09T06:22:49;95628.66;;;1.78;100.00
22047;BME280;11187;49.412;20.956;2023-04-09T06:25:43;95618.03;;;1.91;100.00
22047;BME280;11187;49.412;20.956;2023-04-09T06:28:17;95627.41;;;1.97;100.00
22047;BME280;11187;49.412;20.956;2023-04-09T06:31:10;95625.09;;;2.04;100.00
22047;BME280;11187;49.412;20.956;2023-04-09T06:34:04;95632.06;;;2.16;100.00
22047;BME280;11187;49.412;20.956;2023-04-09T06:36:38;95627.19;;;2.24;100.00
22047;BME280;11187;49.412;20.956;2023-04-09T06:39:24;95637.53;;;2.36;100.00
22047;BME280;11187;49.412;20.956;2023-04-09T06:41:58;95636.78;;;2.40;100.00
22047;BME280;11187;49.412;20.956;2023-04-09T06:44:51;95636.94;;;2.46;100.00
22047;BME280;11187;49.412;20.956;2023-04-09T06:47:25;95631.19;;;2.54;100.00
22047;BME280;11187;49.412;20.956;2023-04-09T06:50:11;95638.94;;;2.63;100.00
22047;BME280;11187;49.412;20.956;2023-04-09T06:53:05;95643.31;;;2.70;100.00
22047;BME280;11187;49.412;20.956;2023-04-09T06:55:59;95635.06;;;2.77;100.00
22047;BME280;11187;49.412;20.956;2023-04-09T06:58:33;95637.63;;;2.80;100.00
22047;BME280;11187;49.412;20.956;2023-04-09T07:01:19;95637.75;;;2.88;100.00
22047;BME280;11187;49.412;20.956;2023-04-09T07:03:53;95645.53;;;2.96;100.00
22047;BME280;11187;49.412;20.956;2023-04-09T07:06:39;95649.88;;;3.04;100.00
22047;BME280;11187;49.412;20.956;2023-04-09T07:09:13;95652.56;;;3.12;100.00
22047;BME280;11187;49.412;20.956;2023-04-09T07:11:59;95653.63;;;3.23;100.00
22047;BME280;11187;49.412;20.956;2023-04-09T07:14:33;95644.47;;;3.31;100.00
22047;BME280;11187;49.412;20.956;2023-04-09T07:17:19;95649.69;;;3.39;100.00
22047;BME280;11187;49.412;20.956;2023-04-09T07:19:53;95647.38;;;3.51;100.00
22047;BME280;11187;49.412;20.956;2023-04-09T07:22:39;95652.66;;;3.64;100.00
22047;BME280;11187;49.412;20.956;2023-04-09T07:25:14;95651.84;;;3.68;100.00
22047;BME280;11187;49.412;20.956;2023-04-09T07:28:07;95650.28;;;3.73;100.00
22047;BME280;11187;49.412;20.956;2023-04-09T07:31:01;95657.88;;;3.73;100.00
22047;BME280;11187;49.412;20.956;2023-04-09T07:33:35;95656.16;;;3.70;100.00
22047;BME280;11187;49.412;20.956;2023-04-09T07:36:21;95652.94;;;3.81;100.00
22047;BME280;11187;49.412;20.956;2023-04-09T07:38:56;95656.44;;;3.90;100.00
22047;BME280;11187;49.412;20.956;2023-04-09T07:41:42;95649.84;;;3.98;100.00
22047;BME280;11187;49.412;20.956;2023-04-09T07:44:16;95651.69;;;4.10;100.00
22047;BME280;11187;49.412;20.956;2023-04-09T07:47:04;95658.13;;;4.46;100.00
22047;BME280;11187;49.412;20.956;2023-04-09T07:49:39;95655.81;;;4.62;100.00
22047;BME280;11187;49.412;20.956;2023-04-09T07:52:25;95652.88;;;4.98;100.00
22047;BME280;11187;49.412;20.956;2023-04-09T07:54:59;95645.78;;;5.47;100.00
22047;BME280;11187;49.412;20.956;2023-04-09T07:57:45;95653.78;;;5.90;100.00
22047;BME280;11187;49.412;20.956;2023-04-09T08:00:20;95651.41;;;6.05;100.00
22047;BME280;11187;49.412;20.956;2023-04-09T08:03:13;95650.63;;;6.14;100.00
22047;BME280;11187;49.412;20.956;2023-04-09T08:05:47;95651.56;;;6.25;100.00
22047;BME280;11187;49.412;20.956;2023-04-09T08:08:34;95648.28;;;6.39;100.00
22047;BME280;11187;49.412;20.956;2023-04-09T08:11:08;95649.25;;;6.59;100.00
22047;BME280;11187;49.412;20.956;2023-04-09T08:13:54;95654.38;;;6.65;100.00
22047;BME280;11187;49.412;20.956;2023-04-09T08:16:29;95644.31;;;6.93;100.00
22047;BME280;11187;49.412;20.956;2023-04-09T08:19:22;95639.38;;;7.48;100.00
22047;BME280;11187;49.412;20.956;2023-04-09T08:22:19;95639.44;;;7.85;100.00
22047;BME280;11187;49.412;20.956;2023-04-09T08:24:55;95641.97;;;8.10;100.00
22047;BME280;11187;49.412;20.956;2023-04-09T08:27:42;95639.41;;;8.65;100.00
22047;BME280;11187;49.412;20.956;2023-04-09T08:30:16;95645.16;;;9.15;97.27
22047;BME280;11187;49.412;20.956;2023-04-09T08:33:02;95640.75;;;9.54;95.44
22047;BME280;11187;49.412;20.956;2023-04-09T08:35:36;95643.94;;;9.82;93.05
22047;BME280;11187;49.412;20.956;2023-04-09T08:38:22;95644.72;;;9.95;93.55
22047;BME280;11187;49.412;20.956;2023-04-09T08:40:56;95643.75;;;10.11;92.75
22047;BME280;11187;49.412;20.956;2023-04-09T08:43:50;95653.16;;;10.06;90.49
22047;BME280;11187;49.412;20.956;2023-04-09T08:46:26;95651.53;;;9.97;88.50
22047;BME280;11187;49.412;20.956;2023-04-09T08:49:12;95651.34;;;10.22;89.25
22047;BME280;11187;49.412;20.956;2023-04-09T08:51:47;95652.75;;;10.55;88.21
22047;BME280;11187;49.412;20.956;2023-04-09T08:54:33;95663.03;;;10.51;88.58
22047;BME280;11187;49.412;20.956;2023-04-09T08:57:07;95662.25;;;10.45;88.24
22047;BME280;11187;49.412;20.956;2023-04-09T09:00:00;95662.28;;;10.41;85.58
22047;BME280;11187;49.412;20.956;2023-04-09T09:03:06;95660.44;;;10.58;82.91
22047;BME280;11187;49.412;20.956;2023-04-09T09:05:45;95659.19;;;10.93;85.23
22047;BME280;11187;49.412;20.956;2023-04-09T09:08:38;95642.59;;;11.23;83.71
22047;BME280;11187;49.412;20.956;2023-04-09T09:11:34;95644.44;;;11.12;82.20
22047;BME280;11187;49.412;20.956;2023-04-09T09:14:10;95642.94;;;10.97;84.72
22047;BME280;11187;49.412;20.956;2023-04-09T09:17:04;95637.53;;;11.22;86.38
22047;BME280;11187;49.412;20.956;2023-04-09T09:19:38;95645.63;;;11.56;84.32
22047;BME280;11187;49.412;20.956;2023-04-09T09:22:47;95644.19;;;11.97;82.52
22047;BME280;11187;49.412;20.956;2023-04-09T09:25:24;95645.97;;;11.92;78.15
22047;BME280;11187;49.412;20.956;2023-04-09T09:28:17;95643.22;;;12.04;79.96
22047;BME280;11187;49.412;20.956;2023-04-09T09:30:52;95652.22;;;11.74;80.13
22047;BME280;11187;49.412;20.956;2023-04-09T09:33:38;95652.63;;;11.42;80.36
22047;BME280;11187;49.412;20.956;2023-04-09T09:36:12;95649.16;;;11.44;82.68
22047;BME280;11187;49.412;20.956;2023-04-09T09:38:59;95646.81;;;11.29;79.81
22047;BME280;11187;49.412;20.956;2023-04-09T09:41:41;95646.53;;;11.52;81.04
22047;BME280;11187;49.412;20.956;2023-04-09T09:44:30;95638.56;;;11.70;77.86
22047;BME280;11187;49.412;20.956;2023-04-09T09:47:04;95635.94;;;11.74;78.54
22047;BME280;11187;49.412;20.956;2023-04-09T09:50:01;95633.09;;;11.95;72.79
22047;BME280;11187;49.412;20.956;2023-04-09T09:53:09;95641.66;;;11.94;75.80
22047;BME280;11187;49.412;20.956;2023-04-09T09:56:06;95638.53;;;12.29;77.00
22047;BME280;11187;49.412;20.956;2023-04-09T09:58:53;95630.41;;;12.54;75.73
22047;BME280;11187;49.412;20.956;2023-04-09T10:02:03;95633.81;;;12.05;76.07
22047;BME280;11187;49.412;20.956;2023-04-09T10:04:59;95644.72;;;11.57;75.22
22047;BME280;11187;49.412;20.956;2023-04-09T10:07:33;95632.13;;;11.42;75.73
22047;BME280;11187;49.412;20.956;2023-04-09T10:10:26;95625.75;;;11.69;75.92
22047;BME280;11187;49.412;20.956;2023-04-09T10:13:25;95625.50;;;11.87;72.82
22047;BME280;11187;49.412;20.956;2023-04-09T10:16:21;95622.97;;;11.83;74.48
22047;BME280;11187;49.412;20.956;2023-04-09T10:19:16;95624.59;;;11.91;70.10
22047;BME280;11187;49.412;20.956;2023-04-09T10:22:11;95618.69;;;11.88;73.96
22047;BME280;11187;49.412;20.956;2023-04-09T10:25:06;95626.09;;;12.06;69.70
22047;BME280;11187;49.412;20.956;2023-04-09T10:27:41;95625.38;;;11.97;72.90
22047;BME280;11187;49.412;20.956;2023-04-09T10:30:36;95624.38;;;12.07;73.72
22047;BME280;11187;49.412;20.956;2023-04-09T10:33:29;95612.63;;;12.43;74.06
22047;BME280;11187;49.412;20.956;2023-04-09T10:36:05;95622.19;;;12.82;72.33
22047;BME280;11187;49.412;20.956;2023-04-09T10:38:54;95611.94;;;13.24;72.97
22047;BME280;11187;49.412;20.956;2023-04-09T10:41:28;95615.00;;;13.43;73.42
22047;BME280;11187;49.412;20.956;2023-04-09T10:44:22;95615.22;;;13.32;70.66
22047;BME280;11187;49.412;20.956;2023-04-09T10:46:55;95610.75;;;12.96;70.67
22047;BME280;11187;49.412;20.956;2023-04-09T10:49:41;95611.72;;;12.46;70.26
22047;BME280;11187;49.412;20.956;2023-04-09T10:52:39;95607.81;;;12.71;71.52
22047;BME280;11187;49.412;20.956;2023-04-09T10:55:40;95608.28;;;12.92;67.50
22047;BME280;11187;49.412;20.956;2023-04-09T10:58:14;95606.31;;;13.05;67.14
22047;BME280;11187;49.412;20.956;2023-04-09T11:01:07;95605.16;;;12.78;64.54
22047;BME280;11187;49.412;20.956;2023-04-09T11:03:43;95600.53;;;12.50;67.86
22047;BME280;11187;49.412;20.956;2023-04-09T11:06:39;95602.59;;;12.31;67.18
22047;BME280;11187;49.412;20.956;2023-04-09T11:09:13;95611.13;;;12.31;68.15
22047;BME280;11187;49.412;20.956;2023-04-09T11:12:06;95609.78;;;12.10;69.51
22047;BME280;11187;49.412;20.956;2023-04-09T11:14:40;95604.91;;;11.94;69.44
22047;BME280;11187;49.412;20.956;2023-04-09T11:17:36;95609.31;;;11.84;70.46
22047;BME280;11187;49.412;20.956;2023-04-09T11:20:32;95614.63;;;11.70;69.79
22047;BME280;11187;49.412;20.956;2023-04-09T11:23:06;95608.06;;;11.49;68.48
22047;BME280;11187;49.412;20.956;2023-04-09T11:25:53;95606.00;;;11.15;70.23
22047;BME280;11187;49.412;20.956;2023-04-09T11:28:27;95606.13;;;11.03;72.10
22047;BME280;11187;49.412;20.956;2023-04-09T11:31:26;95615.72;;;10.89;70.63
22047;BME280;11187;49.412;20.956;2023-04-09T11:34:19;95619.22;;;10.80;72.83
22047;BME280;11187;49.412;20.956;2023-04-09T11:36:53;95614.13;;;10.77;72.55
22047;BME280;11187;49.412;20.956;2023-04-09T11:39:44;95614.25;;;10.68;72.30
22047;BME280;11187;49.412;20.956;2023-04-09T11:42:18;95617.66;;;10.65;74.24
22047;BME280;11187;49.412;20.956;2023-04-09T11:45:14;95616.81;;;10.66;73.44
22047;BME280;11187;49.412;20.956;2023-04-09T11:48:07;95615.97;;;10.64;73.95
22047;BME280;11187;49.412;20.956;2023-04-09T11:51:04;95617.00;;;10.49;73.64
22047;BME280;11187;49.412;20.956;2023-04-09T11:54:01;95622.16;;;10.40;73.29
22047;BME280;11187;49.412;20.956;2023-04-09T11:56:35;95618.88;;;10.29;72.82
22047;BME280;11187;49.412;20.956;2023-04-09T11:59:21;95623.16;;;10.23;74.32
22047;BME280;11187;49.412;20.956;2023-04-09T12:01:58;95628.31;;;10.19;72.65
22047;BME280;11187;49.412;20.956;2023-04-09T12:04:49;95625.84;;;10.10;72.65
22047;BME280;11187;49.412;20.956;2023-04-09T12:07:31;95628.44;;;10.07;72.22
22047;BME280;11187;49.412;20.956;2023-04-09T12:10:25;95624.22;;;9.96;72.02
22047;BME280;11187;49.412;20.956;2023-04-09T12:13:05;95617.41;;;9.98;74.76
22047;BME280;11187;49.412;20.956;2023-04-09T12:15:59;95626.72;;;10.06;75.69
22047;BME280;11187;49.412;20.956;2023-04-09T12:18:53;95622.47;;;10.03;73.15
22047;BME280;11187;49.412;20.956;2023-04-09T12:21:53;95623.34;;;10.00;73.36
22047;BME280;11187;49.412;20.956;2023-04-09T12:24:46;95620.00;;;9.95;74.10
22047;BME280;11187;49.412;20.956;2023-04-09T12:27:20;95623.38;;;9.96;74.43
22047;BME280;11187;49.412;20.956;2023-04-09T12:30:14;95614.91;;;9.91;73.76
22047;BME280;11187;49.412;20.956;2023-04-09T12:32:47;95617.44;;;9.92;73.39
22047;BME280;11187;49.412;20.956;2023-04-09T12:35:40;95613.22;;;9.88;74.71
22047;BME280;11187;49.412;20.956;2023-04-09T12:38:14;95614.97;;;9.80;74.34
22047;BME280;11187;49.412;20.956;2023-04-09T12:41:00;95613.38;;;9.67;75.48
22047;BME280;11187;49.412;20.956;2023-04-09T12:43:34;95615.09;;;9.65;75.65
22047;BME280;11187;49.412;20.956;2023-04-09T12:46:28;95610.84;;;9.64;74.81
22047;BME280;11187;49.412;20.956;2023-04-09T12:49:23;95612.53;;;9.68;73.77
22047;BME280;11187;49.412;20.956;2023-04-09T12:51:56;95622.78;;;9.63;75.54
22047;BME280;11187;49.412;20.956;2023-04-09T12:54:43;95612.56;;;9.61;76.18
22047;BME280;11187;49.412;20.956;2023-04-09T12:57:17;95615.13;;;9.61;75.15
22047;BME280;11187;49.412;20.956;2023-04-09T13:00:05;95614.25;;;9.62;76.96
22047;BME280;11187;49.412;20.956;2023-04-09T13:02:39;95617.69;;;9.57;75.55
22047;BME280;11187;49.412;20.956;2023-04-09T13:05:25;95617.69;;;9.55;76.89
22047;BME280;11187;49.412;20.956;2023-04-09T13:07:59;95616.84;;;9.55;78.16
22047;BME280;11187;49.412;20.956;2023-04-09T13:10:46;95616.88;;;9.49;77.59
22047;BME280;11187;49.412;20.956;2023-04-09T13:13:19;95614.31;;;9.53;78.54
22047;BME280;11187;49.412;20.956;2023-04-09T13:16:07;95614.31;;;9.55;76.67
22047;BME280;11187;49.412;20.956;2023-04-09T13:18:41;95612.59;;;9.55;77.57
22047;BME280;11187;49.412;20.956;2023-04-09T13:21:27;95621.97;;;9.56;75.40
22047;BME280;11187;49.412;20.956;2023-04-09T13:24:04;95613.44;;;9.56;76.10
22047;BME280;11187;49.412;20.956;2023-04-09T13:26:50;95615.16;;;9.57;76.38
22047;BME280;11187;49.412;20.956;2023-04-09T13:29:24;95609.19;;;9.56;77.17
22047;BME280;11187;49.412;20.956;2023-04-09T13:32:10;95611.75;;;9.56;76.45
22047;BME280;11187;49.412;20.956;2023-04-09T13:34:44;95607.47;;;9.55;76.13
22047;BME280;11187;49.412;20.956;2023-04-09T13:37:32;95614.31;;;9.55;75.95
22047;BME280;11187;49.412;20.956;2023-04-09T13:40:07;95609.22;;;9.50;76.19
22047;BME280;11187;49.412;20.956;2023-04-09T13:42:53;95611.81;;;9.44;75.20
22047;BME280;11187;49.412;20.956;2023-04-09T13:45:27;95602.44;;;9.40;75.90
22047;BME280;11187;49.412;20.956;2023-04-09T13:48:14;95599.91;;;9.40;77.06
22047;BME280;11187;49.412;20.956;2023-04-09T13:50:47;95610.13;;;9.43;76.92
22047;BME280;11187;49.412;20.956;2023-04-09T13:53:33;95607.59;;;9.37;75.75
22047;BME280;11187;49.412;20.956;2023-04-09T13:56:07;95610.16;;;9.38;77.21
22047;BME280;11187;49.412;20.956;2023-04-09T13:59:00;95604.19;;;9.36;76.11
22047;BME280;11187;49.412;20.956;2023-04-09T14:01:54;95603.38;;;9.31;77.29
22047;BME280;11187;49.412;20.956;2023-04-09T14:04:28;95602.53;;;9.29;77.91
22047;BME280;11187;49.412;20.956;2023-04-09T14:07:16;95605.06;;;9.32;76.05
22047;BME280;11187;49.412;20.956;2023-04-09T14:09:49;95603.38;;;9.31;76.71
22047;BME280;11187;49.412;20.956;2023-04-09T14:12:43;95605.06;;;9.31;77.82
22047;BME280;11187;49.412;20.956;2023-04-09T14:15:37;95603.34;;;9.33;78.66
22047;BME280;11187;49.412;20.956;2023-04-09T14:18:31;95604.22;;;9.33;77.35
22047;BME280;11187;49.412;20.956;2023-04-09T14:21:26;95601.63;;;9.35;77.25
22047;BME280;11187;49.412;20.956;2023-04-09T14:23:59;95601.66;;;9.33;76.57